Cannon AFB, New Mexico
Current Conditions -  °F | °C
As of 4:58 AM on Sunday 25 Jan 2015 (Local Time) from KCVS Reporting Station
Clear Clear  
Wind Chill: 25°   Ceiling: Unl
Heat Index: 34°   Visibility: 10mi
Dew Point: 27°   Wind: 12mph
Humidity: 75%   Direction: 40°NE
Pressure: 30.15"   Gusts: NA
Location:  34.38°N, 103.31°W
Report Text: KCVS 251158Z AUTO 04010KT 10SM CLR 01/M03 A3015 RMK AO2 SLP209 T00111029 10024 20002 50010 VISNO RWY22 $
Loading
Personal Weather Stations






























Interactive Weather Map New forecast layout! Learn more

10-Day Weather Forecast

Advertisements
Track Severe Weather on mobile